Time;durP1;ratioP1;P1;durP2;ratioP2;P2;SDS_P1;SDS_P2;PMS_P1;PMS_P2;Temp;Humidity;BMP_temperature;BMP_pressure;BME280_temperature;BME280_humidity;BME280_pressure;Samples;Min_cycle;Max_cycle;Signal;HPM_P1;HPM_P2
2022/12/11 17:34:18;;;;;;;4.13;2.70;;;;;;;17.20;41.48;93524.44;5050665;27;21172;-64
2022/12/11 17:36:46;;;;;;;1.90;1.80;;;;;;;15.89;43.16;93532.50;5048293;28;20206;-64
2022/12/11 17:39:12;;;;;;;2.53;2.33;;;;;;;14.35;46.75;93526.22;5048944;28;20285;-64
2022/12/11 17:41:39;;;;;;;3.10;2.45;;;;;;;13.41;48.06;93520.97;5049672;28;20739;-64
2022/12/11 17:44:06;;;;;;;2.90;2.60;;;;;;;12.60;50.62;93521.34;5049749;28;20803;-63
2022/12/11 17:46:33;;;;;;;7.57;2.47;;;;;;;11.62;54.04;93514.94;5048778;28;20208;-63
2022/12/11 17:49:02;;;;;;;5.25;4.75;;;;;;;10.27;58.26;93516.25;5048199;28;20202;-64
2022/12/11 17:51:30;;;;;;;4.18;3.78;;;;;;;9.74;59.03;93527.63;5047683;28;20706;-65
2022/12/11 17:53:57;;;;;;;3.55;3.22;;;;;;;9.25;60.79;93527.75;5049835;28;20201;-64
2022/12/11 17:56:24;;;;;;;2.78;2.58;;;;;;;8.88;63.24;93538.16;5049219;28;20205;-64
2022/12/11 17:58:51;;;;;;;2.40;2.20;;;;;;;8.28;65.09;93540.28;5049135;28;20585;-65
2022/12/11 18:01:18;;;;;;;2.50;2.30;;;;;;;8.13;65.63;93541.88;5050903;28;20216;-66
2022/12/11 18:03:45;;;;;;;4.05;3.72;;;;;;;7.94;67.29;93541.91;5051288;28;20734;-65
2022/12/11 18:06:14;;;;;;;5.35;4.80;;;;;;;7.85;66.93;93548.25;5052959;28;20248;-66
2022/12/11 18:08:44;;;;;;;4.30;3.92;;;;;;;7.79;67.57;93545.19;5052397;28;20210;-63
2022/12/11 18:11:13;;;;;;;2.60;2.40;;;;;;;7.64;67.23;93546.72;5054539;28;20206;-66
2022/12/11 18:13:40;;;;;;;4.55;4.25;;;;;;;7.17;67.83;93543.84;5053325;28;20247;-66
2022/12/11 18:16:10;;;;;;;2.30;2.20;;;;;;;7.35;68.53;93569.97;5051710;28;20202;-66
2022/12/11 18:18:37;;;;;;;2.03;1.92;;;;;;;7.16;69.90;93572.50;5053096;28;20206;-65
2022/12/11 18:21:04;;;;;;;2.85;2.65;;;;;;;7.05;69.66;93564.56;5052093;28;20217;-65
2022/12/11 18:23:31;;;;;;;4.30;3.95;;;;;;;7.10;70.02;93567.72;5054106;28;20225;-65
2022/12/11 18:26:00;;;;;;;4.72;3.50;;;;;;;7.00;69.32;93558.88;5046462;28;20663;-65
2022/12/11 18:28:30;;;;;;;5.05;3.08;;;;;;;6.98;69.94;93553.09;5047301;28;20263;-64
2022/12/11 18:30:59;;;;;;;4.53;4.10;;;;;;;7.58;68.64;93544.47;5047596;28;20609;-65
2022/12/11 18:33:26;;;;;;;5.35;3.20;;;;;;;7.87;67.16;93555.75;5047933;28;20237;-65
2022/12/11 18:35:53;;;;;;;3.22;2.65;;;;;;;8.42;64.62;93550.56;5047342;28;20206;-64
2022/12/11 18:38:19;;;;;;;2.13;1.92;;;;;;;7.50;66.93;93559.16;5047061;28;20767;-63
2022/12/11 18:40:46;;;;;;;1.92;1.83;;;;;;;7.13;68.13;93557.47;5048005;28;20237;-64
2022/12/11 18:43:14;;;;;;;2.25;2.15;;;;;;;7.00;68.20;93558.88;5047519;28;20630;-64
2022/12/11 18:45:43;;;;;;;1.70;1.60;;;;;;;6.99;68.86;93547.16;5033554;28;20206;-65
2022/12/11 18:48:10;;;;;;;1.83;1.73;;;;;;;6.98;68.10;93568.25;5033107;28;20761;-65
2022/12/11 18:50:37;;;;;;;2.00;1.90;;;;;;;6.92;68.44;93571.06;5033619;28;20732;-63
2022/12/11 18:53:04;;;;;;;1.73;1.63;;;;;;;6.75;69.53;93572.56;5033716;28;20210;-63
2022/12/11 18:55:31;;;;;;;1.67;1.65;;;;;;;6.52;70.21;93575.25;5033328;28;20214;-63
2022/12/11 18:57:58;;;;;;;1.60;1.60;;;;;;;6.58;70.07;93569.13;5034170;28;20198;-63
2022/12/11 19:00:26;;;;;;;1.75;1.65;;;;;;;6.48;70.26;93573.72;5034779;28;20198;-64
2022/12/11 19:02:52;;;;;;;1.80;1.70;;;;;;;6.47;70.97;93572.91;5033758;28;20233;-63
2022/12/11 19:05:19;;;;;;;1.85;1.75;;;;;;;-142.91;100.00;56616.03;5032750;28;20683;-64
2022/12/11 19:07:46;;;;;;;1.50;1.50;;;;;;;-142.91;100.00;56616.03;5033553;28;20233;-63
2022/12/11 19:10:13;;;;;;;2.20;2.10;;;;;;;-142.91;100.00;56616.03;5033136;28;20335;-64
2022/12/11 19:12:41;;;;;;;10.60;8.02;;;;;;;-142.91;100.00;56616.03;5033954;28;20230;-65
2022/12/11 19:15:09;;;;;;;30.27;17.15;;;;;;;-142.91;100.00;56616.03;5035421;28;20210;-66
2022/12/11 19:17:38;;;;;;;7.75;6.90;;;;;;;-142.91;100.00;56616.03;5035791;28;20221;-63
2022/12/11 19:20:06;;;;;;;3.00;2.80;;;;;;;-142.91;100.00;56616.03;5033230;28;20702;-66
2022/12/11 19:22:33;;;;;;;8.48;6.68;;;;;;;-142.91;100.00;56616.03;5030865;28;20210;-65
2022/12/11 19:25:00;;;;;;;2.03;1.92;;;;;;;-142.91;100.00;56616.03;5032237;28;20202;-62
2022/12/11 19:27:27;;;;;;;2.58;2.38;;;;;;;-142.91;100.00;56616.03;5031736;28;20210;-65
2022/12/11 19:29:54;;;;;;;2.05;1.95;;;;;;;-142.91;100.00;56616.03;5031223;28;20295;-66
2022/12/11 19:32:20;;;;;;;2.10;2.00;;;;;;;-142.91;100.00;56616.03;5033439;28;20226;-64
2022/12/11 19:34:53;;;;;;;3.05;2.85;;;;;;;-142.91;100.00;56616.03;5033021;28;20226;-66
2022/12/11 19:37:20;;;;;;;4.72;3.83;;;;;;;-142.91;100.00;56616.03;5034100;28;20210;-65
2022/12/11 19:39:47;;;;;;;3.85;3.55;;;;;;;-142.91;100.00;56616.03;5033047;28;20587;-66
2022/12/11 19:42:14;;;;;;;17.52;11.82;;;;;;;-142.91;100.00;56616.03;5034595;28;20471;-65
2022/12/11 19:44:41;;;;;;;3.20;3.00;;;;;;;-142.91;100.00;56616.03;5035552;28;20226;-65
2022/12/11 19:47:07;;;;;;;7.65;6.57;;;;;;;-142.91;100.00;56616.03;5033119;28;20207;-66
2022/12/11 19:49:34;;;;;;;12.32;9.45;;;;;;;-142.91;100.00;56616.03;5032129;28;20805;-66
2022/12/11 19:52:03;;;;;;;3.88;3.58;;;;;;;-142.91;100.00;56616.03;5037622;28;20213;-66
2022/12/11 19:54:31;;;;;;;3.83;3.17;;;;;;;-142.91;100.00;56616.03;5032239;28;20202;-65
2022/12/11 19:56:57;;;;;;;3.35;3.15;;;;;;;-142.91;100.00;56616.03;5031504;28;20198;-65
2022/12/11 19:59:24;;;;;;;2.70;2.60;;;;;;;-142.91;100.00;56616.03;5033858;28;20202;-65
2022/12/11 20:01:51;;;;;;;2.90;2.67;;;;;;;-142.91;100.00;56616.03;5034862;28;20269;-65
2022/12/11 20:04:18;;;;;;;2.92;2.72;;;;;;;-142.91;100.00;56616.03;5035946;28;21007;-65
2022/12/11 20:06:47;;;;;;;3.58;3.25;;;;;;;-142.91;100.00;56616.03;5034804;28;20210;-65
2022/12/11 20:09:15;;;;;;;3.05;2.85;;;;;;;-142.91;100.00;56616.03;5039326;28;20256;-65
2022/12/11 20:11:43;;;;;;;3.90;3.60;;;;;;;-142.91;100.00;56616.03;5035829;28;20567;-66
2022/12/11 20:14:18;;;;;;;4.10;3.80;;;;;;;-142.91;100.00;56616.03;5037020;28;20683;-65
2022/12/11 20:16:45;;;;;;;3.63;3.33;;;;;;;-142.91;100.00;56616.03;5038185;28;20202;-66
2022/12/11 20:19:12;;;;;;;3.78;3.47;;;;;;;-142.91;100.00;56616.03;5034908;28;20584;-65
2022/12/11 20:21:39;;;;;;;3.45;3.25;;;;;;;-142.91;100.00;56616.03;5037018;28;20207;-63
2022/12/11 20:24:06;;;;;;;3.60;3.30;;;;;;;-142.91;100.00;56616.03;5031635;28;20275;-66
2022/12/11 20:26:35;;;;;;;3.70;3.50;;;;;;;-142.91;100.00;56616.03;5031546;28;20674;-64
2022/12/11 20:29:06;;;;;;;3.58;3.38;;;;;;;-142.91;100.00;56616.03;5031707;28;20213;-64
2022/12/11 20:31:32;;;;;;;3.08;2.88;;;;;;;-142.91;100.00;56616.03;5030329;28;20694;-63
2022/12/11 20:33:59;;;;;;;3.38;3.17;;;;;;;-142.91;100.00;56616.03;5031884;28;20322;-64
2022/12/11 20:36:30;;;;;;;3.38;3.17;;;;;;;-142.91;100.00;56616.03;5026216;28;20691;-64
2022/12/11 20:38:56;;;;;;;2.78;2.67;;;;;;;-142.91;100.00;56616.03;5032883;28;20261;-65
2022/12/11 20:41:25;;;;;;;3.25;3.05;;;;;;;-142.91;100.00;56616.03;5030804;28;20230;-63
2022/12/11 20:43:54;;;;;;;2.97;2.88;;;;;;;-142.91;100.00;56616.03;5031580;28;20288;-60
2022/12/11 20:46:23;;;;;;;4.40;4.05;;;;;;;-142.91;100.00;56616.03;5031279;28;20202;-61
2022/12/11 20:48:51;;;;;;;3.05;2.85;;;;;;;-142.91;100.00;56616.03;5032788;28;20703;-65
2022/12/11 20:51:20;;;;;;;3.15;2.95;;;;;;;-142.91;100.00;56616.03;5031989;28;20210;-65
2022/12/11 20:53:47;;;;;;;3.45;3.15;;;;;;;-142.91;100.00;56616.03;5034204;28;20215;-65
2022/12/11 20:56:16;;;;;;;3.28;3.08;;;;;;;-142.91;100.00;56616.03;5033500;28;20202;-63
2022/12/11 20:58:44;;;;;;;3.60;3.40;;;;;;;-142.91;100.00;56616.03;5031445;28;20206;-64
2022/12/11 21:01:15;;;;;;;26.85;16.75;;;;;;;-142.91;100.00;56616.03;5029894;28;20198;-64
2022/12/11 21:03:42;;;;;;;11.80;8.38;;;;;;;-142.91;100.00;56616.03;5030908;28;21364;-64
2022/12/11 21:06:09;;;;;;;3.55;3.33;;;;;;;-142.91;100.00;56616.03;5029581;28;20333;-64
2022/12/11 21:08:35;;;;;;;7.43;6.65;;;;;;;-142.91;100.00;56616.03;5030946;28;20206;-65
2022/12/11 21:11:05;;;;;;;5.22;4.80;;;;;;;-142.91;100.00;56616.03;5032127;28;20214;-64
2022/12/11 21:13:32;;;;;;;6.05;5.55;;;;;;;-142.91;100.00;56616.03;5031058;28;20693;-65
2022/12/11 21:16:04;;;;;;;3.83;3.63;;;;;;;-142.91;100.00;56616.03;5033437;28;20221;-64
2022/12/11 21:18:33;;;;;;;3.35;3.10;;;;;;;-142.91;100.00;56616.03;5036779;28;20198;-65
2022/12/11 21:21:01;;;;;;;3.30;3.10;;;;;;;-142.91;100.00;56616.03;5038599;28;20658;-65
2022/12/11 21:23:27;;;;;;;3.03;2.83;;;;;;;-142.91;100.00;56616.03;5038713;28;20225;-65
2022/12/11 21:25:54;;;;;;;3.33;3.13;;;;;;;-142.91;100.00;56616.03;5032097;28;20619;-64
2022/12/11 21:28:21;;;;;;;3.08;2.88;;;;;;;-142.91;100.00;56616.03;5032409;28;20207;-63
2022/12/11 21:30:48;;;;;;;3.08;2.88;;;;;;;-142.91;100.00;56616.03;5034207;28;20644;-63
2022/12/11 21:33:15;;;;;;;3.30;3.10;;;;;;;-142.91;100.00;56616.03;5030906;28;20257;-64
2022/12/11 21:35:43;;;;;;;3.42;3.22;;;;;;;-142.91;100.00;56616.03;5031393;28;20248;-64
2022/12/11 21:38:10;;;;;;;2.90;2.70;;;;;;;-142.91;100.00;56616.03;5029620;28;20206;-64
2022/12/11 21:40:37;;;;;;;3.13;2.92;;;;;;;-142.91;100.00;56616.03;5032293;28;20202;-64
2022/12/11 21:43:03;;;;;;;3.35;3.15;;;;;;;-142.91;100.00;56616.03;5031256;28;20688;-64
2022/12/11 21:45:34;;;;;;;3.92;3.63;;;;;;;-142.91;100.00;56616.03;5030163;28;20214;-65
2022/12/11 21:48:01;;;;;;;3.38;3.17;;;;;;;-142.91;100.00;56616.03;5030897;28;20217;-65
2022/12/11 21:50:27;;;;;;;4.30;4.00;;;;;;;-142.91;100.00;56616.03;5031759;28;20202;-65
2022/12/11 21:52:56;;;;;;;3.42;3.22;;;;;;;-142.91;100.00;56616.03;5028890;28;20228;-64
2022/12/11 21:55:22;;;;;;;3.33;3.13;;;;;;;-142.91;100.00;56616.03;5028143;28;20348;-64
2022/12/11 21:57:50;;;;;;;3.75;3.45;;;;;;;-142.91;100.00;56616.03;5029509;28;20206;-65
2022/12/11 22:00:17;;;;;;;3.10;3.00;;;;;;;-142.91;100.00;56616.03;5031729;28;20233;-65
2022/12/11 22:02:44;;;;;;;3.40;3.20;;;;;;;-142.91;100.00;56616.03;5030587;28;20206;-64
2022/12/11 22:05:11;;;;;;;3.67;3.38;;;;;;;-142.91;100.00;56616.03;5030360;28;20222;-65
2022/12/11 22:07:38;;;;;;;4.10;3.83;;;;;;;-142.91;100.00;56616.03;5030824;28;20221;-64
2022/12/11 22:10:07;;;;;;;6.07;5.57;;;;;;;-142.91;100.00;56616.03;5027613;28;21351;-64
2022/12/11 22:12:34;;;;;;;3.90;3.60;;;;;;;-142.91;100.00;56616.03;5028848;28;20264;-64
2022/12/11 22:15:00;;;;;;;4.32;3.92;;;;;;;-142.91;100.00;56616.03;5034467;28;20625;-66
2022/12/11 22:17:27;;;;;;;4.18;3.92;;;;;;;-142.91;100.00;56616.03;5037876;28;20202;-65
2022/12/11 22:19:54;;;;;;;4.35;3.95;;;;;;;-142.91;100.00;56616.03;5040269;28;20733;-65
2022/12/11 22:22:21;;;;;;;3.47;3.28;;;;;;;-142.91;100.00;56616.03;5043307;28;20206;-66
2022/12/11 22:24:49;;;;;;;3.72;3.53;;;;;;;-142.91;100.00;56616.03;5039177;28;20232;-65
2022/12/11 22:27:17;;;;;;;4.78;4.45;;;;;;;-142.91;100.00;56616.03;5036865;28;20249;-66
2022/12/11 22:29:44;;;;;;;4.05;3.80;;;;;;;-142.91;100.00;56616.03;5034888;28;20576;-66
2022/12/11 22:32:11;;;;;;;3.85;3.65;;;;;;;-142.91;100.00;56616.03;5033519;28;20712;-66
2022/12/11 22:34:38;;;;;;;3.70;3.50;;;;;;;-142.91;100.00;56616.03;5033553;28;20742;-67
2022/12/11 22:37:05;;;;;;;3.63;3.42;;;;;;;-142.91;100.00;56616.03;5033775;28;20613;-67
2022/12/11 22:39:31;;;;;;;3.20;2.90;;;;;;;-142.91;100.00;56616.03;5034665;28;20244;-65
2022/12/11 22:41:59;;;;;;;3.15;2.97;;;;;;;-142.91;100.00;56616.03;5032875;28;20211;-66
2022/12/11 22:44:27;;;;;;;3.20;3.00;;;;;;;-142.91;100.00;56616.03;5032119;28;20661;-65
2022/12/11 22:46:54;;;;;;;3.08;2.88;;;;;;;-142.91;100.00;56616.03;5028528;28;20222;-65
2022/12/11 22:49:20;;;;;;;3.65;3.40;;;;;;;-142.91;100.00;56616.03;5033023;28;20275;-65
2022/12/11 22:51:47;;;;;;;3.17;2.97;;;;;;;-142.91;100.00;56616.03;5033978;28;20311;-66
2022/12/11 22:54:14;;;;;;;3.42;3.22;;;;;;;-142.91;100.00;56616.03;5033769;28;20202;-64
2022/12/11 22:56:41;;;;;;;3.75;3.45;;;;;;;-142.91;100.00;56616.03;5033078;28;20234;-64
2022/12/11 22:59:08;;;;;;;3.63;3.42;;;;;;;-142.91;100.00;56616.03;5031034;28;20221;-65
2022/12/11 23:01:36;;;;;;;3.45;3.25;;;;;;;-142.91;100.00;56616.03;5031839;28;21655;-64
2022/12/11 23:04:03;;;;;;;3.15;2.95;;;;;;;-142.91;100.00;56616.03;5031244;28;20261;-64
2022/12/11 23:06:29;;;;;;;3.00;2.80;;;;;;;-142.91;100.00;56616.03;5032662;28;20217;-65
2022/12/11 23:08:58;;;;;;;3.22;2.97;;;;;;;-142.91;100.00;56616.03;5030678;28;20264;-64
2022/12/11 23:11:27;;;;;;;3.28;3.08;;;;;;;-142.91;100.00;56616.03;5034138;28;20680;-64
2022/12/11 23:13:55;;;;;;;3.22;3.03;;;;;;;-142.91;100.00;56616.03;5033250;28;20203;-64
2022/12/11 23:16:23;;;;;;;3.17;2.97;;;;;;;-142.91;100.00;56616.03;5033636;28;20210;-65
2022/12/11 23:18:52;;;;;;;3.55;3.25;;;;;;;-142.91;100.00;56616.03;5034134;28;20210;-65
2022/12/11 23:21:18;;;;;;;3.30;3.10;;;;;;;-142.91;100.00;56616.03;5034878;28;20216;-65
2022/12/11 23:23:45;;;;;;;4.03;3.15;;;;;;;-142.91;100.00;56616.03;5036287;28;20233;-65
2022/12/11 23:26:13;;;;;;;3.10;2.90;;;;;;;-142.91;100.00;56616.03;5028936;28;20470;-66
2022/12/11 23:28:41;;;;;;;3.55;3.35;;;;;;;-142.91;100.00;56616.03;5030086;28;20211;-64
2022/12/11 23:31:07;;;;;;;4.60;3.50;;;;;;;-142.91;100.00;56616.03;5031156;28;20206;-64
2022/12/11 23:33:34;;;;;;;3.40;3.20;;;;;;;-142.91;100.00;56616.03;5031556;28;20242;-64
2022/12/11 23:36:03;;;;;;;3.65;3.35;;;;;;;-142.91;100.00;56616.03;5024856;28;20202;-64
2022/12/11 23:38:30;;;;;;;3.40;3.20;;;;;;;-142.91;100.00;56616.03;5031354;28;20241;-64
2022/12/11 23:40:58;;;;;;;3.78;3.42;;;;;;;-142.91;100.00;56616.03;5031140;28;20202;-64
2022/12/11 23:43:25;;;;;;;3.35;3.13;;;;;;;-142.91;100.00;56616.03;5028378;28;20238;-64
2022/12/11 23:45:52;;;;;;;3.80;3.55;;;;;;;-142.91;100.00;56616.03;5028476;28;20284;-65
2022/12/11 23:48:19;;;;;;;4.32;4.03;;;;;;;-142.91;100.00;56616.03;5029721;28;20214;-64
2022/12/11 23:50:46;;;;;;;3.13;2.88;;;;;;;-142.91;100.00;56616.03;5030684;28;20265;-65
2022/12/11 23:53:15;;;;;;;3.17;2.97;;;;;;;-142.91;100.00;56616.03;5025905;28;20888;-64
2022/12/11 23:55:44;;;;;;;3.40;3.20;;;;;;;-142.91;100.00;56616.03;5029984;28;20288;-64
2022/12/11 23:58:11;;;;;;;3.40;3.20;;;;;;;-142.91;100.00;56616.03;5032252;28;20209;-64
